createdAt,value
2022-08-31T00:02:59.527Z,78.27
2022-08-31T00:05:46.429Z,71.92
2022-08-31T00:08:33.218Z,70.79
2022-08-31T00:11:28.040Z,72.33
2022-08-31T00:14:14.628Z,72.84
2022-08-31T00:17:01.057Z,71.83
2022-08-31T00:19:47.290Z,71.42
2022-08-31T00:22:33.734Z,68.14
2022-08-31T00:25:20.195Z,73.67
2022-08-31T00:28:07.618Z,77.92
2022-08-31T00:30:53.883Z,77.42
2022-08-31T00:33:40.637Z,75.57
2022-08-31T00:36:27.615Z,75.37
2022-08-31T00:39:14.622Z,71.60
2022-08-31T00:42:00.910Z,71.32
2022-08-31T00:44:47.220Z,73.81
2022-08-31T00:47:33.709Z,70.78
2022-08-31T00:50:21.672Z,69.80
2022-08-31T00:53:08.168Z,69.63
2022-08-31T00:55:54.733Z,70.23
2022-08-31T00:58:41.571Z,70.76
2022-08-31T01:01:30.873Z,70.82
2022-08-31T01:04:17.260Z,73.01
2022-08-31T01:07:05.186Z,73.99
2022-08-31T01:09:53.268Z,73.07
2022-08-31T01:12:44.694Z,74.63
2022-08-31T01:15:32.220Z,73.67
2022-08-31T01:18:19.497Z,73.17
2022-08-31T01:21:37.140Z,73.97
2022-08-31T01:24:25.375Z,73.32
2022-08-31T01:27:15.357Z,73.52
2022-08-31T01:30:03.746Z,74.09
2022-08-31T01:32:50.022Z,79.29
2022-08-31T01:35:37.394Z,77.14
2022-08-31T01:38:24.181Z,76.84
2022-08-31T01:41:10.648Z,80.56
2022-08-31T01:43:59.468Z,79.78
2022-08-31T01:46:48.641Z,79.02
2022-08-31T01:49:34.865Z,77.68
2022-08-31T01:52:21.154Z,74.70
2022-08-31T01:55:10.300Z,78.81
2022-08-31T01:57:58.150Z,75.41
2022-08-31T02:00:46.734Z,75.34
2022-08-31T02:03:33.336Z,76.73
2022-08-31T02:06:19.770Z,77.53
2022-08-31T02:09:07.508Z,76.87
2022-08-31T02:11:55.230Z,82.19
2022-08-31T02:14:41.694Z,80.88
2022-08-31T02:17:28.365Z,80.47
2022-08-31T02:20:16.493Z,76.90
2022-08-31T02:23:03.552Z,79.51
2022-08-31T02:25:49.954Z,78.87
2022-08-31T02:28:37.326Z,79.31
2022-08-31T02:31:24.503Z,79.82
2022-08-31T02:34:10.947Z,79.40
2022-08-31T02:36:57.361Z,77.15
2022-08-31T02:39:43.658Z,78.75
2022-08-31T02:42:33.067Z,80.87
2022-08-31T02:45:38.070Z,91.68
2022-08-31T02:48:24.692Z,89.11
2022-08-31T02:51:11.517Z,87.19
2022-08-31T02:53:57.894Z,84.12
2022-08-31T02:56:44.259Z,83.75
2022-08-31T02:59:30.523Z,86.79
2022-08-31T03:02:17.679Z,86.58
2022-08-31T03:05:08.852Z,86.33
2022-08-31T03:07:55.009Z,83.43
2022-08-31T03:10:41.306Z,81.28
2022-08-31T03:13:29.869Z,78.62
2022-08-31T03:16:16.441Z,78.27
2022-08-31T03:19:02.829Z,81.33
2022-08-31T03:21:55.955Z,79.43
2022-08-31T03:24:44.108Z,79.28
2022-08-31T03:27:30.917Z,81.95
2022-08-31T03:30:20.397Z,80.46
2022-08-31T03:33:07.275Z,81.74
2022-08-31T03:35:53.570Z,82.78
2022-08-31T03:38:39.934Z,81.44
2022-08-31T03:41:26.920Z,80.01
2022-08-31T03:44:14.207Z,79.00
2022-08-31T03:47:01.646Z,81.21
2022-08-31T03:49:47.931Z,82.96
2022-08-31T03:52:34.336Z,80.46
2022-08-31T03:55:20.615Z,90.15
2022-08-31T03:58:07.318Z,82.83
2022-08-31T04:00:54.494Z,80.24
2022-08-31T04:03:41.659Z,79.86
2022-08-31T04:06:30.093Z,79.34
2022-08-31T04:09:39.483Z,81.82
2022-08-31T04:12:27.602Z,81.66
2022-08-31T04:15:15.631Z,80.51
2022-08-31T04:18:04.373Z,83.30
2022-08-31T04:20:54.650Z,84.67
2022-08-31T04:23:42.062Z,84.58
2022-08-31T04:26:34.086Z,83.62
2022-08-31T04:29:28.555Z,84.55
2022-08-31T04:32:14.968Z,80.17
2022-08-31T04:35:01.998Z,80.96
2022-08-31T04:37:48.978Z,80.70
2022-08-31T04:40:37.625Z,80.35
2022-08-31T04:43:25.190Z,83.13
2022-08-31T04:46:11.956Z,79.99
2022-08-31T04:48:59.100Z,81.59
2022-08-31T04:51:45.374Z,88.00
2022-08-31T04:54:32.379Z,84.74
2022-08-31T04:57:18.602Z,89.89
2022-08-31T05:00:05.616Z,87.01
2022-08-31T05:02:55.759Z,85.30
2022-08-31T05:05:42.201Z,81.99
2022-08-31T05:08:28.993Z,82.40
2022-08-31T05:11:19.846Z,79.44
2022-08-31T05:14:10.340Z,80.80
2022-08-31T05:16:57.196Z,81.75
2022-08-31T05:19:44.040Z,80.03
2022-08-31T05:22:31.220Z,81.26
2022-08-31T05:25:17.543Z,81.06
2022-08-31T05:28:05.186Z,78.84
2022-08-31T05:30:51.689Z,80.71
2022-08-31T05:33:39.920Z,78.00
2022-08-31T05:36:26.426Z,78.36
2022-08-31T05:39:13.457Z,79.05
2022-08-31T05:42:00.349Z,77.35
2022-08-31T05:44:46.799Z,74.78
2022-08-31T05:47:33.170Z,76.06
2022-08-31T05:50:19.606Z,72.16
2022-08-31T05:53:06.566Z,73.82
2022-08-31T05:56:06.768Z,74.94
2022-08-31T05:58:53.336Z,72.34
2022-08-31T06:01:41.495Z,71.00
2022-08-31T06:04:33.604Z,70.52
2022-08-31T06:07:20.034Z,73.12
2022-08-31T06:10:07.569Z,71.97
2022-08-31T06:12:53.609Z,68.51
2022-08-31T06:15:42.240Z,66.91
2022-08-31T06:18:29.979Z,66.31
2022-08-31T06:21:22.472Z,66.68
2022-08-31T06:24:10.231Z,65.58
2022-08-31T06:27:00.093Z,64.09
2022-08-31T06:29:46.943Z,62.64
2022-08-31T06:32:33.260Z,63.42
2022-08-31T06:35:19.606Z,63.86
2022-08-31T06:38:08.641Z,60.22
2022-08-31T06:40:55.888Z,59.25
2022-08-31T06:43:43.669Z,57.08
2022-08-31T06:46:32.356Z,54.59
2022-08-31T06:49:19.551Z,53.59
2022-08-31T06:52:05.957Z,55.24
2022-08-31T06:54:52.146Z,53.77
2022-08-31T06:57:39.512Z,52.62
2022-08-31T07:00:27.562Z,53.40
2022-08-31T07:03:23.791Z,53.63
2022-08-31T07:06:17.311Z,51.87
2022-08-31T07:09:05.366Z,51.76
2022-08-31T07:11:52.406Z,52.12
2022-08-31T07:14:38.754Z,50.39
2022-08-31T07:17:25.897Z,49.23
2022-08-31T07:20:12.615Z,52.78
2022-08-31T07:22:59.139Z,52.26
2022-08-31T07:25:46.011Z,51.18
2022-08-31T07:28:33.836Z,52.75
2022-08-31T07:31:23.336Z,53.10
2022-08-31T07:34:11.212Z,51.44
2022-08-31T07:37:19.110Z,50.52
2022-08-31T07:40:25.044Z,50.31
2022-08-31T07:43:12.454Z,49.53
2022-08-31T07:45:59.560Z,49.86
2022-08-31T07:48:45.636Z,51.96
2022-08-31T07:51:32.167Z,50.63
2022-08-31T07:54:21.402Z,52.21
2022-08-31T07:57:07.837Z,51.98
2022-08-31T07:59:59.155Z,50.86
2022-08-31T08:02:50.811Z,49.47
2022-08-31T08:05:41.775Z,49.15
2022-08-31T08:08:27.799Z,48.18
2022-08-31T08:11:21.114Z,47.82
2022-08-31T08:14:12.168Z,47.53
2022-08-31T08:16:59.026Z,47.35
2022-08-31T08:19:46.397Z,48.83
2022-08-31T08:22:51.831Z,46.38
2022-08-31T08:25:39.258Z,41.79
2022-08-31T08:28:43.115Z,43.42
2022-08-31T08:31:29.706Z,43.23
2022-08-31T08:34:16.011Z,43.31
2022-08-31T08:37:02.928Z,43.00
2022-08-31T08:39:49.732Z,42.46
2022-08-31T08:42:36.122Z,42.28
2022-08-31T08:45:23.213Z,41.99
2022-08-31T08:48:11.372Z,40.52
2022-08-31T08:50:59.564Z,40.00
2022-08-31T08:53:49.198Z,39.39
2022-08-31T08:56:42.117Z,38.61
2022-08-31T08:59:28.833Z,40.35
2022-08-31T09:02:20.354Z,39.88
2022-08-31T09:05:13.193Z,39.94
2022-08-31T09:08:18.118Z,38.93
2022-08-31T09:11:39.162Z,38.99
2022-08-31T09:15:11.306Z,38.21
2022-08-31T09:18:03.241Z,37.05
2022-08-31T09:21:07.492Z,35.70
2022-08-31T09:24:11.805Z,36.07
2022-08-31T09:27:11.390Z,38.96
2022-08-31T09:30:00.826Z,38.84
2022-08-31T09:32:57.170Z,37.05
2022-08-31T09:35:43.763Z,35.96
2022-08-31T09:38:39.493Z,36.15
2022-08-31T09:41:28.645Z,35.59
2022-08-31T09:44:29.509Z,34.35
2022-08-31T09:47:38.202Z,34.05
2022-08-31T09:50:47.453Z,34.83
2022-08-31T09:53:59.560Z,35.10
2022-08-31T09:56:56.176Z,32.24
2022-08-31T09:59:47.989Z,33.18
2022-08-31T10:02:38.127Z,32.12
2022-08-31T10:05:31.854Z,32.20
2022-08-31T10:08:46.269Z,31.34
2022-08-31T10:11:33.167Z,31.95
2022-08-31T10:14:38.414Z,31.71
2022-08-31T10:17:32.641Z,34.89
2022-08-31T10:20:21.958Z,30.85
2022-08-31T10:23:27.815Z,30.48
2022-08-31T10:26:19.280Z,29.38
2022-08-31T10:29:35.384Z,29.06
2022-08-31T10:32:29.979Z,31.64
2022-08-31T10:35:22.245Z,31.92
2022-08-31T10:38:40.903Z,31.41
2022-08-31T10:41:30.851Z,30.82
2022-08-31T10:44:26.474Z,31.74
2022-08-31T10:47:17.861Z,31.34
2022-08-31T10:50:26.962Z,29.91
2022-08-31T10:53:47.203Z,31.14
2022-08-31T10:56:41.315Z,31.03
2022-08-31T10:59:55.948Z,34.87
2022-08-31T11:03:16.165Z,33.39
2022-08-31T11:06:23.507Z,30.91
2022-08-31T11:09:33.630Z,30.34
2022-08-31T11:12:30.772Z,30.40
2022-08-31T11:15:44.084Z,29.25
2022-08-31T11:19:00.609Z,30.67
2022-08-31T11:21:58.735Z,29.13
2022-08-31T11:25:15.152Z,29.21
2022-08-31T11:28:34.289Z,28.22
2022-08-31T11:31:27.364Z,29.00
2022-08-31T11:34:25.756Z,28.80
2022-08-31T11:37:13.249Z,27.27
2022-08-31T11:40:10.667Z,25.69
2022-08-31T11:43:01.149Z,25.73
2022-08-31T11:45:47.308Z,24.77
2022-08-31T11:48:53.538Z,26.13
2022-08-31T11:51:44.903Z,24.07
2022-08-31T11:54:38.209Z,24.65
2022-08-31T11:57:26.840Z,24.94
2022-08-31T12:00:20.510Z,24.48
2022-08-31T12:03:09.554Z,23.20
2022-08-31T12:05:57.858Z,23.77
2022-08-31T12:08:52.345Z,23.13
2022-08-31T12:11:49.854Z,24.07
2022-08-31T12:14:56.744Z,26.08
2022-08-31T12:17:58.169Z,26.04
2022-08-31T12:21:12.821Z,24.03
2022-08-31T12:24:25.818Z,27.87
2022-08-31T12:27:18.279Z,26.30
2022-08-31T12:30:16.389Z,26.48
2022-08-31T12:33:08.517Z,26.02
2022-08-31T12:36:18.177Z,26.40
2022-08-31T12:39:07.255Z,23.93
2022-08-31T12:42:03.806Z,24.06
2022-08-31T12:44:51.791Z,24.14
2022-08-31T12:48:11.450Z,25.21
2022-08-31T12:51:31.872Z,27.50
2022-08-31T12:54:33.682Z,28.04
2022-08-31T12:57:49.121Z,26.21
2022-08-31T13:00:39.341Z,26.27
2022-08-31T13:03:29.220Z,26.39
2022-08-31T13:06:30.567Z,28.17
2022-08-31T13:09:35.679Z,28.16
2022-08-31T13:12:24.737Z,26.48
2022-08-31T13:15:21.993Z,25.42
2022-08-31T13:18:14.201Z,27.07
2022-08-31T13:21:05.715Z,26.06
2022-08-31T13:23:52.002Z,27.43
2022-08-31T13:26:38.739Z,26.74
2022-08-31T13:29:24.708Z,25.64
2022-08-31T13:32:32.276Z,24.17
2022-08-31T13:35:21.146Z,24.13
2022-08-31T13:38:09.083Z,21.80
2022-08-31T13:40:55.979Z,24.28
2022-08-31T13:43:47.818Z,25.12
2022-08-31T13:46:43.632Z,25.18
2022-08-31T13:49:35.968Z,25.37
2022-08-31T13:52:26.056Z,24.66
2022-08-31T13:55:13.622Z,24.05
2022-08-31T13:58:06.649Z,23.27
2022-08-31T14:00:58.136Z,23.39
2022-08-31T14:03:57.485Z,23.39
2022-08-31T14:06:50.453Z,23.67
2022-08-31T14:09:44.885Z,25.70
2022-08-31T14:12:37.212Z,27.30
2022-08-31T14:15:37.514Z,26.54
2022-08-31T14:18:31.287Z,27.27
2022-08-31T14:21:21.844Z,26.49
2022-08-31T14:24:12.229Z,25.29
2022-08-31T14:27:00.333Z,25.70
2022-08-31T14:29:46.404Z,25.34
2022-08-31T14:32:33.321Z,25.82
2022-08-31T14:35:22.250Z,26.14
2022-08-31T14:38:08.551Z,27.05
2022-08-31T14:40:56.367Z,26.00
2022-08-31T14:43:44.669Z,26.35
2022-08-31T14:46:30.855Z,27.46
2022-08-31T14:49:17.298Z,28.26
2022-08-31T14:52:04.639Z,29.62
2022-08-31T14:54:51.275Z,28.01
2022-08-31T14:57:40.428Z,27.96
2022-08-31T15:00:29.147Z,27.71
2022-08-31T15:03:16.302Z,27.60
2022-08-31T15:06:04.266Z,26.48
2022-08-31T15:08:52.046Z,26.96
2022-08-31T15:11:39.972Z,26.48
2022-08-31T15:14:27.186Z,26.57
2022-08-31T15:17:19.129Z,25.66
2022-08-31T15:20:08.135Z,25.93
2022-08-31T15:22:54.507Z,26.91
2022-08-31T15:25:40.337Z,28.16
2022-08-31T15:28:31.024Z,28.67
2022-08-31T15:31:27.073Z,26.65
2022-08-31T15:34:19.128Z,28.62
2022-08-31T15:37:07.124Z,29.16
2022-08-31T15:39:53.721Z,29.06
2022-08-31T15:42:42.068Z,31.30
2022-08-31T15:45:30.866Z,30.59
2022-08-31T15:48:35.713Z,33.01
2022-08-31T15:51:27.776Z,34.10
2022-08-31T15:54:22.149Z,34.66
2022-08-31T15:57:12.184Z,35.37
2022-08-31T15:59:58.521Z,35.96
2022-08-31T16:02:44.966Z,35.77
2022-08-31T16:05:35.724Z,36.77
2022-08-31T16:08:28.428Z,36.34
2022-08-31T16:11:15.089Z,36.08
2022-08-31T16:14:01.330Z,37.21
2022-08-31T16:16:49.059Z,37.29
2022-08-31T16:19:36.935Z,37.14
2022-08-31T16:22:30.436Z,37.35
2022-08-31T16:25:17.695Z,37.20
2022-08-31T16:28:06.942Z,37.49
2022-08-31T16:30:53.137Z,37.36
2022-08-31T16:33:41.872Z,38.27
2022-08-31T16:36:28.476Z,37.18
2022-08-31T16:39:14.875Z,37.62
2022-08-31T16:42:01.465Z,38.11
2022-08-31T16:44:48.176Z,37.17
2022-08-31T16:47:34.105Z,38.32
2022-08-31T16:50:20.617Z,38.49
2022-08-31T16:53:07.027Z,38.63
2022-08-31T16:55:53.300Z,38.80
2022-08-31T16:58:51.857Z,40.74
2022-08-31T17:01:42.377Z,39.59
2022-08-31T17:04:51.024Z,40.78
2022-08-31T17:07:35.278Z,40.16
2022-08-31T17:10:21.531Z,41.04
2022-08-31T17:13:08.703Z,40.65
2022-08-31T17:15:54.951Z,40.52
2022-08-31T17:18:42.388Z,40.79
2022-08-31T17:21:31.619Z,41.04
2022-08-31T17:24:24.347Z,41.44
2022-08-31T17:27:13.550Z,42.38
2022-08-31T17:30:05.869Z,42.18
2022-08-31T17:32:51.806Z,41.07
2022-08-31T17:35:41.645Z,40.11
2022-08-31T17:38:28.603Z,39.45
2022-08-31T17:41:15.643Z,38.84
2022-08-31T17:44:02.008Z,41.45
2022-08-31T17:46:52.224Z,40.44
2022-08-31T17:49:42.107Z,40.64
2022-08-31T17:52:30.878Z,40.21
2022-08-31T17:55:17.537Z,39.75
2022-08-31T17:58:05.849Z,40.40
2022-08-31T18:00:54.682Z,40.55
2022-08-31T18:03:40.907Z,40.13
2022-08-31T18:06:28.447Z,41.82
2022-08-31T18:09:18.332Z,42.19
2022-08-31T18:12:06.244Z,40.55
2022-08-31T18:14:53.837Z,41.28
2022-08-31T18:17:40.574Z,40.08
2022-08-31T18:20:28.487Z,43.20
2022-08-31T18:23:16.510Z,42.01
2022-08-31T18:26:02.828Z,42.75
2022-08-31T18:28:49.446Z,42.29
2022-08-31T18:31:38.959Z,41.97
2022-08-31T18:34:25.836Z,43.03
2022-08-31T18:37:13.121Z,43.79
2022-08-31T18:40:18.063Z,43.99
2022-08-31T18:43:23.972Z,45.52
2022-08-31T18:46:10.488Z,42.69
2022-08-31T18:49:01.110Z,42.60
2022-08-31T18:51:57.607Z,44.13
2022-08-31T18:54:44.201Z,43.21
2022-08-31T18:57:33.269Z,42.10
2022-08-31T19:00:20.096Z,42.51
2022-08-31T19:03:06.701Z,42.59
2022-08-31T19:05:53.158Z,42.31
2022-08-31T19:08:39.287Z,43.26
2022-08-31T19:11:25.614Z,43.70
2022-08-31T19:14:12.514Z,43.89
2022-08-31T19:17:01.255Z,42.72
2022-08-31T19:19:50.823Z,43.10
2022-08-31T19:22:37.654Z,43.81
2022-08-31T19:25:24.419Z,41.39
2022-08-31T19:28:11.283Z,40.65
2022-08-31T19:30:57.454Z,38.94
2022-08-31T19:33:46.667Z,40.07
2022-08-31T19:36:33.590Z,39.61
2022-08-31T19:39:23.040Z,37.62
2022-08-31T19:42:09.642Z,37.30
2022-08-31T19:45:22.848Z,38.22
2022-08-31T19:48:02.466Z,38.41
2022-08-31T19:50:50.197Z,37.14
2022-08-31T19:53:38.963Z,37.72
2022-08-31T19:56:31.547Z,38.49
2022-08-31T19:59:21.123Z,39.29
2022-08-31T20:02:08.848Z,40.13
2022-08-31T20:04:55.155Z,39.37
2022-08-31T20:07:42.032Z,39.67
2022-08-31T20:10:29.972Z,40.47
2022-08-31T20:13:16.429Z,41.55
2022-08-31T20:16:05.651Z,40.50
2022-08-31T20:18:53.228Z,42.43
2022-08-31T20:21:42.044Z,40.81
2022-08-31T20:24:28.791Z,40.97
2022-08-31T20:27:18.686Z,41.28
2022-08-31T20:30:05.683Z,42.67
2022-08-31T20:32:51.944Z,40.57
2022-08-31T20:35:47.737Z,39.51
2022-08-31T20:38:41.197Z,41.01
2022-08-31T20:41:31.238Z,41.09
2022-08-31T20:44:22.486Z,40.17
2022-08-31T20:47:29.289Z,40.75
2022-08-31T20:50:15.698Z,40.47
2022-08-31T20:53:01.822Z,40.56
2022-08-31T20:55:48.833Z,40.17
2022-08-31T20:58:35.339Z,41.24
2022-08-31T21:01:25.096Z,40.46
2022-08-31T21:04:11.577Z,41.39
2022-08-31T21:06:59.610Z,41.04
2022-08-31T21:09:46.336Z,41.56
2022-08-31T21:12:32.888Z,41.55
2022-08-31T21:15:19.298Z,42.14
2022-08-31T21:18:05.581Z,43.05
2022-08-31T21:20:52.168Z,44.26
2022-08-31T21:23:38.677Z,44.49
2022-08-31T21:26:27.415Z,46.53
2022-08-31T21:29:17.729Z,44.90
2022-08-31T21:32:08.533Z,47.48
2022-08-31T21:34:56.353Z,46.39
2022-08-31T21:37:42.717Z,49.00
2022-08-31T21:40:31.190Z,48.38
2022-08-31T21:43:17.326Z,46.33
2022-08-31T21:46:06.234Z,46.40
2022-08-31T21:48:54.954Z,47.98
2022-08-31T21:51:53.927Z,47.06
2022-08-31T21:54:44.851Z,46.22
2022-08-31T21:57:31.770Z,46.15
2022-08-31T22:00:22.203Z,47.15
2022-08-31T22:03:09.001Z,47.17
2022-08-31T22:05:54.946Z,44.69
2022-08-31T22:08:41.578Z,44.69
2022-08-31T22:11:30.522Z,44.93
2022-08-31T22:14:20.015Z,46.81
2022-08-31T22:17:06.907Z,46.60
2022-08-31T22:19:53.380Z,45.92
2022-08-31T22:22:39.820Z,45.22
2022-08-31T22:25:26.264Z,48.27
2022-08-31T22:28:12.999Z,48.65
2022-08-31T22:31:00.940Z,50.03
2022-08-31T22:33:49.698Z,49.38
2022-08-31T22:36:36.559Z,53.58
2022-08-31T22:39:28.154Z,58.18
2022-08-31T22:42:15.205Z,57.76
2022-08-31T22:45:01.997Z,60.55
2022-08-31T22:47:50.189Z,67.04
2022-08-31T22:50:36.536Z,65.26
2022-08-31T22:53:22.913Z,68.37
2022-08-31T22:56:25.924Z,65.82
2022-08-31T22:59:15.524Z,63.59
2022-08-31T23:02:03.850Z,67.72
2022-08-31T23:04:50.331Z,69.92
2022-08-31T23:07:36.354Z,76.17
2022-08-31T23:10:24.149Z,77.69
2022-08-31T23:13:10.455Z,81.78
2022-08-31T23:15:58.423Z,83.39
2022-08-31T23:18:49.302Z,86.41
2022-08-31T23:21:35.801Z,87.45
2022-08-31T23:24:26.750Z,81.24
2022-08-31T23:27:15.550Z,81.29
2022-08-31T23:30:01.865Z,77.09
2022-08-31T23:32:48.490Z,82.11
2022-08-31T23:35:34.695Z,81.60
2022-08-31T23:38:21.039Z,85.33
2022-08-31T23:41:07.150Z,85.51
2022-08-31T23:44:02.547Z,81.91
2022-08-31T23:46:49.332Z,80.30
2022-08-31T23:49:35.894Z,78.86
2022-08-31T23:52:25.784Z,75.35
2022-08-31T23:55:12.123Z,75.76
2022-08-31T23:57:59.331Z,74.67
